Trinity, Alabama
Current Conditions -  °F | °C
As of 7:53 PM on Friday 19 Dec 2014 (Local Time) from KDCU Reporting Station
Overcast Overcast  
Wind Chill:   Ceiling: 8000
Heat Index:   Visibility: 10mi
Dew Point: -2°   Wind: 5mph
Humidity: 65%   Direction: 50°NE
Pressure: 30.22"   Gusts: NA
Location:  34.61°N, 87.09°W
Report Text: KDCU 200153Z AUTO 05004KT 10SM OVC080 04/M02 A3022 RMK AO2 SLP235 T00441017
Loading
Personal Weather Stations






























Interactive Weather Map New forecast layout! Learn more

10-Day Weather Forecast

Advertisements
Track Severe Weather on mobile